Time;durP1;ratioP1;P1;durP2;ratioP2;P2;SDS_P1;SDS_P2;PMS_P1;PMS_P2;Temp;Humidity;BMP_temperature;BMP_pressure;BME280_temperature;BME280_humidity;BME280_pressure;Samples;Min_cycle;Max_cycle;Signal;HPM_P1;HPM_P2
2022/03/27 00:02:23;;;;;;;22.98;12.10;;;;;;;;;;5089538;28;20020;-75
2022/03/27 00:04:49;;;;;;;21.98;11.38;;;;;;;;;;5089287;28;20127;-74
2022/03/27 00:07:15;;;;;;;21.70;11.23;;;;;;;;;;5089170;28;20031;-74
2022/03/27 00:09:41;;;;;;;21.65;12.02;;;;;;;;;;5089336;28;20046;-74
2022/03/27 00:12:07;;;;;;;18.98;11.07;;;;;;;;;;5089180;28;20047;-74
2022/03/27 00:14:33;;;;;;;21.58;11.73;;;;;;;;;;5089130;28;20035;-74
2022/03/27 00:16:59;;;;;;;20.05;11.75;;;;;;;;;;5088988;28;20056;-74
2022/03/27 00:19:25;;;;;;;23.55;12.13;;;;;;;;;;5089004;28;20112;-75
2022/03/27 00:21:51;;;;;;;21.30;11.82;;;;;;;;;;5108675;28;20051;-75
2022/03/27 00:24:17;;;;;;;20.73;11.80;;;;;;;;;;5109533;28;20069;-75
2022/03/27 00:26:43;;;;;;;19.85;12.27;;;;;;;;;;5109190;28;20099;-74
2022/03/27 00:29:10;;;;;;;29.77;13.95;;;;;;;;;;5109219;28;20034;-74
2022/03/27 00:31:38;;;;;;;23.50;13.35;;;;;;;;;;5098420;28;20038;-74
2022/03/27 00:34:05;;;;;;;21.85;12.45;;;;;;;;;;5089033;28;20035;-74
2022/03/27 00:36:31;;;;;;;22.08;12.65;;;;;;;;;;5088910;28;20028;-74
2022/03/27 00:38:57;;;;;;;26.98;12.65;;;;;;;;;;5088816;28;20028;-73
2022/03/27 00:41:24;;;;;;;24.15;12.18;;;;;;;;;;5088741;28;20071;-74
2022/03/27 00:43:50;;;;;;;24.42;12.82;;;;;;;;;;5088985;28;20365;-74
2022/03/27 00:46:16;;;;;;;22.10;11.90;;;;;;;;;;5088811;28;20031;-74
2022/03/27 00:48:42;;;;;;;22.25;12.20;;;;;;;;;;5090148;28;20114;-75
2022/03/27 00:51:08;;;;;;;22.20;13.02;;;;;;;;;;5087698;28;20108;-75
2022/03/27 00:53:34;;;;;;;23.73;12.75;;;;;;;;;;5088843;28;20028;-75
2022/03/27 00:56:01;;;;;;;22.60;13.52;;;;;;;;;;5088704;28;20381;-75
2022/03/27 00:58:26;;;;;;;26.85;15.25;;;;;;;;;;5088576;28;20028;-74
2022/03/27 01:01:01;;;;;;;21.33;13.05;;;;;;;;;;5087462;28;20044;-74
2022/03/27 01:03:27;;;;;;;23.85;12.75;;;;;;;;;;5092718;28;20039;-74
2022/03/27 01:05:57;;;;;;;25.73;13.48;;;;;;;;;;5092633;28;20036;-75
2022/03/27 01:11:21;;;;;;;23.85;12.82;;;;;;;;;;5092884;28;20062;-74
2022/03/27 01:13:53;;;;;;;22.67;13.02;;;;;;;;;;5092513;28;20028;-74
2022/03/27 01:16:42;;;;;;;24.42;12.55;;;;;;;;;;5092350;28;20031;-73
2022/03/27 01:19:14;;;;;;;27.88;14.10;;;;;;;;;;5090664;28;20028;-73
2022/03/27 01:21:42;;;;;;;26.88;14.18;;;;;;;;;;5090842;28;20028;-75
2022/03/27 01:24:09;;;;;;;28.67;13.93;;;;;;;;;;5090696;28;20492;-74
2022/03/27 01:26:37;;;;;;;26.02;14.07;;;;;;;;;;5091055;28;20035;-74
2022/03/27 01:29:03;;;;;;;23.98;13.65;;;;;;;;;;5090868;28;20032;-74
2022/03/27 01:31:30;;;;;;;26.95;14.05;;;;;;;;;;5091009;28;20020;-74
2022/03/27 01:33:56;;;;;;;26.40;14.48;;;;;;;;;;5091501;28;20039;-74
2022/03/27 01:36:28;;;;;;;30.60;13.27;;;;;;;;;;5092364;28;20024;-74
2022/03/27 01:38:56;;;;;;;27.58;14.27;;;;;;;;;;5092134;28;20035;-74
2022/03/27 01:41:23;;;;;;;26.08;14.38;;;;;;;;;;5091133;28;20515;-74
2022/03/27 01:43:50;;;;;;;23.30;13.65;;;;;;;;;;5092280;28;20039;-75
2022/03/27 01:46:16;;;;;;;25.38;13.70;;;;;;;;;;5092173;28;20024;-74
2022/03/27 01:48:42;;;;;;;28.67;14.98;;;;;;;;;;5091996;28;20028;-74
2022/03/27 01:51:08;;;;;;;26.58;14.32;;;;;;;;;;5091931;28;20024;-75
2022/03/27 01:53:40;;;;;;;24.33;14.50;;;;;;;;;;5092080;28;20024;-75
2022/03/27 01:56:07;;;;;;;24.58;13.85;;;;;;;;;;5090634;28;20016;-73
2022/03/27 01:58:39;;;;;;;26.60;14.32;;;;;;;;;;5073806;28;20063;-74
2022/03/27 02:01:06;;;;;;;28.27;14.82;;;;;;;;;;5092007;28;20028;-75
2022/03/27 02:03:33;;;;;;;27.40;14.77;;;;;;;;;;5091865;28;20036;-74
2022/03/27 02:05:59;;;;;;;25.58;14.73;;;;;;;;;;5091813;28;20036;-75
2022/03/27 02:08:25;;;;;;;29.10;14.68;;;;;;;;;;5091770;28;20055;-74
2022/03/27 02:10:51;;;;;;;25.30;14.48;;;;;;;;;;5091787;28;20103;-74
2022/03/27 02:13:22;;;;;;;27.33;14.95;;;;;;;;;;5091431;28;20548;-74
2022/03/27 02:15:48;;;;;;;;;;;;;;;;;;5093061;28;20485;-74
2022/03/27 02:18:16;;;;;;;27.50;13.60;;;;;;;;;;5092059;28;19935;-74
2022/03/27 02:20:44;;;;;;;23.10;14.07;;;;;;;;;;5091605;28;20039;-73
2022/03/27 02:23:11;;;;;;;27.58;14.93;;;;;;;;;;5091375;28;20024;-76
2022/03/27 02:25:38;;;;;;;28.23;14.68;;;;;;;;;;5091229;28;20477;-74
2022/03/27 02:28:04;;;;;;;23.08;13.73;;;;;;;;;;5109282;28;20420;-74
2022/03/27 02:30:30;;;;;;;26.13;14.52;;;;;;;;;;5111758;28;20050;-74
2022/03/27 02:32:56;;;;;;;25.98;14.70;;;;;;;;;;5110249;27;20032;-74
2022/03/27 02:35:23;;;;;;;28.30;15.10;;;;;;;;;;5111454;28;20028;-74
2022/03/27 02:37:49;;;;;;;26.17;14.57;;;;;;;;;;5106789;28;20028;-74
2022/03/27 02:40:15;;;;;;;26.90;14.38;;;;;;;;;;5090744;28;20035;-74
2022/03/27 02:42:44;;;;;;;24.50;14.20;;;;;;;;;;5090890;28;20024;-74
2022/03/27 02:45:10;;;;;;;27.38;14.32;;;;;;;;;;5090741;28;20028;-74
2022/03/27 02:47:36;;;;;;;30.23;14.68;;;;;;;;;;5090448;28;20028;-74
2022/03/27 02:50:04;;;;;;;27.30;14.27;;;;;;;;;;5091738;28;20503;-75
2022/03/27 02:52:31;;;;;;;28.17;15.05;;;;;;;;;;5089553;28;20047;-74
2022/03/27 02:54:57;;;;;;;29.02;14.48;;;;;;;;;;5090494;28;20035;-74
2022/03/27 02:57:23;;;;;;;23.95;14.43;;;;;;;;;;5089008;28;20047;-75
2022/03/27 02:59:52;;;;;;;29.75;14.60;;;;;;;;;;5090978;28;20039;-74
2022/03/27 03:02:21;;;;;;;25.83;14.43;;;;;;;;;;5119093;27;20042;-75
2022/03/27 03:04:47;;;;;;;25.88;14.20;;;;;;;;;;5090319;28;20031;-75
2022/03/27 03:07:14;;;;;;;26.25;13.48;;;;;;;;;;5090187;28;20035;-74
2022/03/27 03:09:41;;;;;;;25.48;14.57;;;;;;;;;;5090188;28;20032;-75
2022/03/27 03:12:07;;;;;;;25.02;15.25;;;;;;;;;;5090305;28;20477;-75
2022/03/27 03:14:33;;;;;;;25.77;14.77;;;;;;;;;;5090140;28;20036;-74
2022/03/27 03:17:01;;;;;;;27.65;14.35;;;;;;;;;;5088519;28;20066;-75
2022/03/27 03:19:28;;;;;;;26.15;13.43;;;;;;;;;;5090118;28;20499;-75
2022/03/27 03:21:54;;;;;;;28.77;14.90;;;;;;;;;;5090182;28;20028;-75
2022/03/27 03:24:20;;;;;;;32.63;15.50;;;;;;;;;;5089469;28;20127;-74
2022/03/27 03:26:48;;;;;;;30.52;14.15;;;;;;;;;;5089880;28;20024;-74
2022/03/27 03:29:14;;;;;;;31.17;14.95;;;;;;;;;;5089766;28;20482;-74
2022/03/27 03:31:40;;;;;;;28.55;13.88;;;;;;;;;;5089898;28;20062;-74
2022/03/27 03:34:06;;;;;;;33.03;14.95;;;;;;;;;;5089830;28;20020;-74
2022/03/27 03:36:32;;;;;;;29.83;13.88;;;;;;;;;;5088313;28;20078;-74
2022/03/27 03:38:57;;;;;;;28.83;14.98;;;;;;;;;;5089529;28;20572;-74
2022/03/27 03:41:23;;;;;;;31.63;15.05;;;;;;;;;;5089744;28;20055;-75
2022/03/27 03:43:49;;;;;;;30.30;14.98;;;;;;;;;;5089698;28;20036;-75
2022/03/27 03:46:15;;;;;;;26.98;14.02;;;;;;;;;;5089670;28;20056;-73
2022/03/27 03:48:41;;;;;;;32.25;16.20;;;;;;;;;;5088055;28;20131;-74
2022/03/27 03:51:07;;;;;;;29.23;14.43;;;;;;;;;;5088110;28;20086;-74
2022/03/27 03:53:33;;;;;;;34.42;15.13;;;;;;;;;;5089575;28;20024;-74
2022/03/27 03:55:58;;;;;;;28.25;14.60;;;;;;;;;;5089617;28;20445;-74
2022/03/27 03:58:24;;;;;;;33.17;14.30;;;;;;;;;;5089494;28;20108;-74
2022/03/27 04:00:50;;;;;;;31.80;14.07;;;;;;;;;;5089565;28;20052;-74
2022/03/27 04:03:16;;;;;;;30.33;15.07;;;;;;;;;;5087887;28;20063;-74
2022/03/27 04:05:42;;;;;;;29.42;14.43;;;;;;;;;;5089489;28;20469;-74
2022/03/27 04:08:08;;;;;;;30.58;13.85;;;;;;;;;;5089475;28;20024;-74
2022/03/27 04:10:34;;;;;;;32.30;13.95;;;;;;;;;;5088069;28;20491;-74
2022/03/27 04:13:00;;;;;;;34.17;14.27;;;;;;;;;;5089560;28;20056;-74
2022/03/27 04:15:26;;;;;;;36.22;15.02;;;;;;;;;;5089434;28;20027;-75
2022/03/27 04:17:52;;;;;;;31.52;13.60;;;;;;;;;;5089406;28;20047;-73
2022/03/27 04:20:18;;;;;;;25.83;13.48;;;;;;;;;;5089371;28;20059;-74
2022/03/27 04:22:45;;;;;;;29.70;13.52;;;;;;;;;;5089445;28;20385;-73
2022/03/27 04:25:12;;;;;;;34.88;14.73;;;;;;;;;;5089214;28;20472;-74
2022/03/27 04:27:39;;;;;;;30.90;14.02;;;;;;;;;;5108939;28;20391;-75
2022/03/27 04:30:10;;;;;;;34.58;14.85;;;;;;;;;;5109614;28;20027;-75
2022/03/27 04:32:39;;;;;;;28.48;14.02;;;;;;;;;;5109813;28;20028;-74
2022/03/27 04:35:07;;;;;;;31.85;14.25;;;;;;;;;;5109740;28;20039;-74
2022/03/27 04:37:44;;;;;;;30.02;14.38;;;;;;;;;;5110680;28;20044;-74
2022/03/27 04:40:13;;;;;;;30.73;13.88;;;;;;;;;;5113829;28;20500;-74
2022/03/27 04:42:40;;;;;;;32.20;15.93;;;;;;;;;;5105340;28;20047;-74
2022/03/27 04:45:07;;;;;;;31.63;15.90;;;;;;;;;;5093338;28;20024;-75
2022/03/27 04:47:34;;;;;;;30.30;14.82;;;;;;;;;;5093117;28;20027;-74
2022/03/27 04:50:01;;;;;;;30.73;15.98;;;;;;;;;;5093093;28;20035;-74
2022/03/27 04:52:27;;;;;;;29.50;15.77;;;;;;;;;;5093177;28;20024;-74
2022/03/27 04:54:53;;;;;;;29.33;15.85;;;;;;;;;;5093096;28;20040;-74
2022/03/27 04:57:21;;;;;;;31.00;16.00;;;;;;;;;;5093098;28;20028;-74
2022/03/27 04:59:47;;;;;;;29.05;15.68;;;;;;;;;;5095665;28;20027;-74
2022/03/27 05:02:13;;;;;;;27.90;15.43;;;;;;;;;;5093076;28;20024;-75
2022/03/27 05:04:41;;;;;;;30.05;15.57;;;;;;;;;;5093032;28;20803;-74
2022/03/27 05:07:07;;;;;;;26.52;15.00;;;;;;;;;;5091255;28;20398;-74
2022/03/27 05:09:33;;;;;;;26.95;14.75;;;;;;;;;;5092643;28;20483;-74
2022/03/27 05:11:59;;;;;;;31.73;16.92;;;;;;;;;;5092773;28;20043;-74
2022/03/27 05:14:25;;;;;;;29.48;14.80;;;;;;;;;;5092546;28;20024;-74
2022/03/27 05:16:51;;;;;;;27.38;15.25;;;;;;;;;;5092419;28;20026;-74
2022/03/27 05:19:17;;;;;;;30.52;16.52;;;;;;;;;;5092434;28;20052;-74
2022/03/27 05:21:43;;;;;;;30.75;15.75;;;;;;;;;;5090827;28;20058;-74
2022/03/27 05:24:09;;;;;;;27.70;15.73;;;;;;;;;;5092460;28;20059;-74
2022/03/27 05:26:35;;;;;;;30.73;15.75;;;;;;;;;;5092246;28;20035;-75
2022/03/27 05:29:04;;;;;;;32.97;15.18;;;;;;;;;;5092133;28;20384;-74
2022/03/27 05:31:29;;;;;;;29.63;15.18;;;;;;;;;;5091044;28;20036;-75
2022/03/27 05:33:56;;;;;;;30.98;16.10;;;;;;;;;;5092170;28;20373;-74
2022/03/27 05:36:21;;;;;;;30.58;16.35;;;;;;;;;;5091900;28;20027;-74
2022/03/27 05:38:48;;;;;;;34.53;15.70;;;;;;;;;;5091989;28;20020;-74
2022/03/27 05:41:14;;;;;;;28.23;15.13;;;;;;;;;;5092133;28;20498;-75
2022/03/27 05:43:41;;;;;;;29.30;14.93;;;;;;;;;;5091980;28;20034;-75
2022/03/27 05:46:07;;;;;;;28.67;14.85;;;;;;;;;;5091855;28;20032;-74
2022/03/27 05:48:33;;;;;;;25.10;13.95;;;;;;;;;;5091424;28;20024;-75
2022/03/27 05:50:59;;;;;;;26.33;15.13;;;;;;;;;;5093192;28;20503;-74
2022/03/27 05:53:25;;;;;;;25.15;13.98;;;;;;;;;;5112286;28;20027;-75
2022/03/27 05:55:51;;;;;;;23.73;14.18;;;;;;;;;;5112047;28;20114;-75
2022/03/27 05:58:17;;;;;;;22.88;14.13;;;;;;;;;;5111978;28;20052;-75
2022/03/27 06:00:43;;;;;;;21.33;13.15;;;;;;;;;;5112101;28;20034;-74
2022/03/27 06:03:09;;;;;;;24.80;13.85;;;;;;;;;;5112168;28;20043;-75
2022/03/27 06:05:35;;;;;;;21.55;12.68;;;;;;;;;;5111889;28;20070;-74
2022/03/27 06:08:01;;;;;;;23.13;13.50;;;;;;;;;;5111601;28;20023;-75
2022/03/27 06:10:31;;;;;;;24.45;14.40;;;;;;;;;;5110508;28;20130;-75
2022/03/27 06:12:58;;;;;;;25.25;14.57;;;;;;;;;;5111982;28;20023;-73
2022/03/27 06:15:24;;;;;;;23.95;14.43;;;;;;;;;;5110273;28;20032;-74
2022/03/27 06:17:52;;;;;;;23.33;14.63;;;;;;;;;;5111635;28;20035;-74
2022/03/27 06:20:21;;;;;;;23.85;14.20;;;;;;;;;;5111559;28;20472;-74
2022/03/27 06:22:47;;;;;;;25.90;14.57;;;;;;;;;;5111223;28;20499;-75
2022/03/27 06:25:15;;;;;;;24.50;14.38;;;;;;;;;;5111125;28;20027;-74
2022/03/27 06:27:42;;;;;;;26.83;13.38;;;;;;;;;;5109431;28;20050;-74
2022/03/27 06:30:11;;;;;;;24.92;14.88;;;;;;;;;;5111054;28;20035;-73
2022/03/27 06:32:37;;;;;;;26.92;14.68;;;;;;;;;;5109796;28;20031;-74
2022/03/27 06:35:05;;;;;;;21.42;14.02;;;;;;;;;;5110995;28;20038;-74
2022/03/27 06:37:32;;;;;;;21.95;14.20;;;;;;;;;;5109405;28;20035;-74
2022/03/27 06:39:58;;;;;;;24.38;14.98;;;;;;;;;;5099739;28;20123;-73
2022/03/27 06:42:26;;;;;;;23.17;14.93;;;;;;;;;;5091133;28;20032;-74
2022/03/27 06:44:54;;;;;;;24.75;14.75;;;;;;;;;;5091165;28;20043;-74
2022/03/27 06:47:20;;;;;;;24.25;14.43;;;;;;;;;;5102469;28;20376;-74
2022/03/27 06:49:47;;;;;;;22.33;14.50;;;;;;;;;;5109530;28;20038;-73
2022/03/27 06:52:14;;;;;;;24.10;14.20;;;;;;;;;;5111285;28;20027;-73
2022/03/27 06:54:41;;;;;;;24.30;15.15;;;;;;;;;;5109336;28;20420;-73
2022/03/27 06:57:07;;;;;;;22.08;14.30;;;;;;;;;;5111227;28;20027;-74
2022/03/27 07:05:03;;;;;;;23.38;14.80;;;;;;;;;;5111080;28;20388;-73
2022/03/27 07:07:33;;;;;;;20.63;14.32;;;;;;;;;;5111061;28;20044;-73
2022/03/27 07:09:59;;;;;;;23.17;14.05;;;;;;;;;;5107920;28;20023;-73
2022/03/27 07:12:25;;;;;;;24.27;15.18;;;;;;;;;;5111221;28;20111;-74
2022/03/27 07:14:51;;;;;;;21.05;13.95;;;;;;;;;;5111078;28;20031;-74
2022/03/27 07:17:18;;;;;;;24.27;15.63;;;;;;;;;;5109633;28;20027;-74
2022/03/27 07:19:45;;;;;;;20.48;14.32;;;;;;;;;;5110983;28;20471;-74
2022/03/27 07:22:10;;;;;;;22.23;15.50;;;;;;;;;;5110885;28;20023;-75
2022/03/27 07:24:37;;;;;;;25.38;16.20;;;;;;;;;;5110716;28;20500;-73
2022/03/27 07:27:03;;;;;;;22.50;16.08;;;;;;;;;;5090012;28;20028;-74
2022/03/27 07:29:32;;;;;;;27.90;15.43;;;;;;;;;;5090318;28;20036;-75
2022/03/27 07:31:58;;;;;;;21.70;15.25;;;;;;;;;;5090316;28;20436;-75
2022/03/27 07:34:24;;;;;;;24.35;15.75;;;;;;;;;;5090687;28;20111;-75
2022/03/27 07:36:50;;;;;;;23.45;15.32;;;;;;;;;;5090590;28;20099;-75
2022/03/27 07:39:16;;;;;;;22.30;15.23;;;;;;;;;;5090819;28;20067;-73
2022/03/27 07:41:42;;;;;;;22.55;15.57;;;;;;;;;;5106840;28;20024;-75
2022/03/27 07:44:08;;;;;;;22.20;15.18;;;;;;;;;;5110410;28;20051;-74
2022/03/27 07:46:33;;;;;;;24.02;15.73;;;;;;;;;;5110415;28;20101;-76
2022/03/27 07:49:02;;;;;;;24.15;15.35;;;;;;;;;;5109731;28;20063;-78
2022/03/27 07:51:28;;;;;;;21.42;14.70;;;;;;;;;;5108485;28;20049;-81
2022/03/27 07:53:54;;;;;;;22.83;14.65;;;;;;;;;;5108964;28;20038;-82
2022/03/27 07:56:20;;;;;;;22.20;15.82;;;;;;;;;;5109993;28;20044;-81
2022/03/27 07:58:46;;;;;;;19.88;15.00;;;;;;;;;;5110010;28;20038;-81
2022/03/27 08:01:14;;;;;;;21.17;15.38;;;;;;;;;;5109599;28;20020;-81
2022/03/27 08:03:44;;;;;;;21.38;14.52;;;;;;;;;;5110015;28;20380;-81
2022/03/27 08:06:10;;;;;;;17.20;12.98;;;;;;;;;;5109615;28;20042;-81
2022/03/27 08:08:36;;;;;;;18.70;13.77;;;;;;;;;;5106664;27;20028;-89
2022/03/27 08:11:02;;;;;;;22.42;14.27;;;;;;;;;;5119574;27;20246;-89
2022/03/27 08:13:28;;;;;;;17.83;13.50;;;;;;;;;;5126482;27;20032;-83
2022/03/27 08:15:54;;;;;;;18.88;13.77;;;;;;;;;;5119873;27;20027;-89
2022/03/27 08:18:20;;;;;;;20.13;13.73;;;;;;;;;;5112924;27;20543;-82
2022/03/27 08:20:46;;;;;;;21.63;14.40;;;;;;;;;;5131678;27;20031;-83
2022/03/27 08:23:12;;;;;;;19.88;14.30;;;;;;;;;;5120655;27;20039;-85
2022/03/27 08:28:23;;;;;;;21.65;13.88;;;;;;;;;;5122090;28;20031;-81
2022/03/27 08:30:50;;;;;;;19.35;13.23;;;;;;;;;;5107916;28;20054;-83
2022/03/27 08:33:17;;;;;;;20.30;13.48;;;;;;;;;;5104411;28;20027;-78
2022/03/27 08:35:43;;;;;;;20.00;13.50;;;;;;;;;;5109938;28;20038;-78
2022/03/27 08:38:13;;;;;;;20.17;13.77;;;;;;;;;;5109031;28;20024;-76
2022/03/27 08:40:41;;;;;;;20.13;13.60;;;;;;;;;;5104076;28;20399;-80
2022/03/27 08:43:13;;;;;;;16.38;12.02;;;;;;;;;;5106348;28;20039;-75
2022/03/27 08:45:40;;;;;;;21.92;13.68;;;;;;;;;;5107416;28;20388;-78
2022/03/27 08:48:07;;;;;;;19.48;13.30;;;;;;;;;;5104095;28;20448;-80
2022/03/27 08:50:58;;;;;;;23.95;14.07;;;;;;;;;;5106969;28;20027;-76
2022/03/27 08:53:37;;;;;;;21.60;13.43;;;;;;;;;;5105775;28;20399;-74
2022/03/27 08:56:07;;;;;;;23.67;13.93;;;;;;;;;;5128546;28;20046;-74
2022/03/27 08:58:38;;;;;;;18.73;14.13;;;;;;;;;;5128131;28;20392;-75
2022/03/27 09:01:06;;;;;;;18.17;13.73;;;;;;;;;;5101943;28;20031;-75
2022/03/27 09:03:33;;;;;;;20.42;13.25;;;;;;;;;;5101603;28;20115;-74
2022/03/27 09:06:00;;;;;;;25.77;14.43;;;;;;;;;;5099287;28;20395;-74
2022/03/27 09:08:26;;;;;;;18.88;13.63;;;;;;;;;;5105079;28;20028;-74
2022/03/27 09:10:52;;;;;;;19.23;13.88;;;;;;;;;;5104417;28;20048;-74
2022/03/27 09:13:19;;;;;;;17.23;13.13;;;;;;;;;;5098569;28;20032;-74
2022/03/27 09:16:01;;;;;;;19.00;13.98;;;;;;;;;;5108633;28;20031;-74
2022/03/27 09:18:43;;;;;;;20.23;13.30;;;;;;;;;;5097364;28;20036;-77
2022/03/27 09:21:09;;;;;;;20.13;14.30;;;;;;;;;;5099910;28;20035;-75
2022/03/27 09:23:35;;;;;;;20.02;14.10;;;;;;;;;;5109228;27;20023;-76
2022/03/27 09:26:06;;;;;;;19.10;14.88;;;;;;;;;;5101411;27;20023;-77
2022/03/27 09:28:38;;;;;;;21.05;15.77;;;;;;;;;;5110418;28;20024;-74
2022/03/27 09:31:18;;;;;;;18.83;13.85;;;;;;;;;;5105849;27;20042;-74
2022/03/27 09:33:49;;;;;;;24.13;15.13;;;;;;;;;;5106618;28;20039;-75
2022/03/27 09:36:21;;;;;;;20.83;14.65;;;;;;;;;;5107357;27;20035;-76
2022/03/27 09:39:02;;;;;;;20.10;14.52;;;;;;;;;;5105988;27;20410;-75
2022/03/27 09:41:51;;;;;;;20.60;14.65;;;;;;;;;;5111100;28;20210;-76
2022/03/27 09:44:19;;;;;;;20.45;14.82;;;;;;;;;;5102909;27;20498;-79
2022/03/27 09:46:47;;;;;;;23.25;15.55;;;;;;;;;;5104357;27;20043;-77
2022/03/27 09:49:17;;;;;;;18.40;14.27;;;;;;;;;;5107606;27;20476;-77
2022/03/27 09:51:59;;;;;;;19.92;14.85;;;;;;;;;;5109347;28;20490;-78
2022/03/27 09:54:27;;;;;;;21.25;14.82;;;;;;;;;;5121440;27;20049;-78
2022/03/27 09:56:53;;;;;;;20.17;14.23;;;;;;;;;;5129839;27;20027;-78
2022/03/27 09:59:31;;;;;;;19.58;14.85;;;;;;;;;;5130034;27;20388;-77
2022/03/27 10:02:17;;;;;;;18.65;13.88;;;;;;;;;;5129518;27;20385;-78
2022/03/27 10:04:53;;;;;;;21.30;14.90;;;;;;;;;;5131004;27;20038;-77
2022/03/27 10:07:19;;;;;;;21.33;14.82;;;;;;;;;;5130347;27;20093;-77
2022/03/27 10:09:45;;;;;;;21.48;14.15;;;;;;;;;;5130690;27;20048;-77
2022/03/27 10:12:12;;;;;;;18.40;13.75;;;;;;;;;;5130169;27;20295;-78
2022/03/27 10:14:41;;;;;;;20.95;14.63;;;;;;;;;;5130720;27;20050;-78
2022/03/27 10:17:09;;;;;;;19.33;14.60;;;;;;;;;;5129856;27;20027;-79
2022/03/27 10:19:50;;;;;;;21.75;14.38;;;;;;;;;;5130484;27;20023;-78
2022/03/27 10:22:20;;;;;;;20.15;14.13;;;;;;;;;;5110255;27;20023;-80
2022/03/27 10:24:48;;;;;;;;;;;;;;;;;;5101068;27;20035;-84
2022/03/27 10:27:17;;;;;;;22.33;13.70;;;;;;;;;;5098623;27;19912;-78
2022/03/27 10:29:44;;;;;;;17.50;14.15;;;;;;;;;;5112478;27;20038;-80
2022/03/27 10:32:11;;;;;;;18.85;14.07;;;;;;;;;;5121267;27;20035;-80
2022/03/27 10:34:55;;;;;;;18.10;14.90;;;;;;;;;;5128376;27;20050;-82
2022/03/27 10:37:32;;;;;;;19.63;14.32;;;;;;;;;;5113294;27;20356;-80
2022/03/27 10:40:36;;;;;;;20.48;15.57;;;;;;;;;;5112042;27;20476;-80
2022/03/27 10:43:23;;;;;;;19.23;14.35;;;;;;;;;;5124945;27;20045;-79
2022/03/27 10:46:23;;;;;;;22.10;14.88;;;;;;;;;;5129046;27;20039;-80
2022/03/27 10:48:51;;;;;;;20.73;14.27;;;;;;;;;;5095133;27;20512;-78
2022/03/27 10:51:27;;;;;;;19.30;14.48;;;;;;;;;;5098120;28;20492;-82
2022/03/27 10:54:19;;;;;;;19.45;14.68;;;;;;;;;;5111547;28;20042;-83
2022/03/27 10:56:52;;;;;;;23.77;13.85;;;;;;;;;;5111126;28;20023;-80
2022/03/27 10:59:24;;;;;;;19.52;14.75;;;;;;;;;;5107888;28;20036;-80
2022/03/27 11:01:52;;;;;;;20.10;14.23;;;;;;;;;;5109843;28;20027;-80
2022/03/27 11:04:37;;;;;;;18.08;14.25;;;;;;;;;;5109426;28;20066;-80
2022/03/27 11:07:15;;;;;;;17.17;11.63;;;;;;;;;;5112574;28;20027;-86
2022/03/27 11:09:45;;;;;;;16.60;13.00;;;;;;;;;;5109820;28;20043;-88
2022/03/27 11:12:28;;;;;;;16.80;12.87;;;;;;;;;;5107509;28;20039;-84
2022/03/27 11:14:58;;;;;;;16.20;12.15;;;;;;;;;;5112483;28;20027;-81
2022/03/27 11:17:43;;;;;;;16.08;12.70;;;;;;;;;;5111165;28;20047;-83
2022/03/27 11:20:23;;;;;;;18.27;13.25;;;;;;;;;;5107624;28;20555;-82
2022/03/27 11:22:57;;;;;;;20.67;13.27;;;;;;;;;;5088704;28;20031;-83
2022/03/27 11:25:36;;;;;;;14.90;11.05;;;;;;;;;;5097829;28;20031;-80
2022/03/27 11:28:13;;;;;;;15.82;11.35;;;;;;;;;;5101709;27;20027;-82
2022/03/27 11:30:50;;;;;;;15.15;10.57;;;;;;;;;;5105930;28;20031;-79
2022/03/27 11:33:29;;;;;;;14.45;10.32;;;;;;;;;;5101339;28;20035;-82
2022/03/27 11:36:01;;;;;;;13.20;9.60;;;;;;;;;;5109325;28;20019;-80
2022/03/27 11:38:35;;;;;;;12.77;9.02;;;;;;;;;;5110293;28;20487;-81
2022/03/27 11:41:22;;;;;;;12.98;9.40;;;;;;;;;;5110306;28;20523;-82
2022/03/27 11:43:50;;;;;;;13.25;8.25;;;;;;;;;;5110437;28;20023;-84
2022/03/27 11:46:27;;;;;;;12.65;8.27;;;;;;;;;;5110810;28;20039;-84
2022/03/27 11:48:53;;;;;;;13.45;9.13;;;;;;;;;;5108902;28;20035;-85
2022/03/27 11:51:19;;;;;;;13.82;9.75;;;;;;;;;;5110476;28;20035;-84
2022/03/27 11:53:45;;;;;;;15.45;9.70;;;;;;;;;;5110210;28;20027;-83
2022/03/27 11:56:11;;;;;;;14.63;9.98;;;;;;;;;;5110195;28;20391;-83
2022/03/27 11:58:38;;;;;;;20.48;10.30;;;;;;;;;;5110108;28;20030;-82
2022/03/27 12:01:08;;;;;;;14.27;9.90;;;;;;;;;;5109813;28;20046;-83
2022/03/27 12:03:35;;;;;;;13.90;9.70;;;;;;;;;;5108301;28;20031;-86
2022/03/27 12:06:09;;;;;;;17.52;12.13;;;;;;;;;;5108548;28;20050;-83
2022/03/27 12:08:39;;;;;;;14.85;10.82;;;;;;;;;;5110222;28;20027;-84
2022/03/27 12:11:06;;;;;;;15.60;10.27;;;;;;;;;;5110287;28;20472;-83
2022/03/27 12:13:42;;;;;;;19.90;11.70;;;;;;;;;;5110339;28;20058;-87
2022/03/27 12:16:25;;;;;;;24.63;11.88;;;;;;;;;;5108203;28;20078;-84
2022/03/27 12:18:51;;;;;;;16.48;10.55;;;;;;;;;;5108071;28;20060;-85
2022/03/27 12:21:20;;;;;;;16.48;10.52;;;;;;;;;;5109938;28;20027;-69
2022/03/27 12:24:02;;;;;;;15.63;11.05;;;;;;;;;;5109900;28;20036;-70
2022/03/27 12:32:13;;;;;;;18.42;12.38;;;;;;;;;;5111531;27;20031;-83
2022/03/27 12:34:43;;;;;;;16.17;10.77;;;;;;;;;;5108592;28;20035;-76
2022/03/27 12:37:15;;;;;;;15.18;10.63;;;;;;;;;;5113796;28;20043;-76
2022/03/27 12:40:02;;;;;;;14.13;10.15;;;;;;;;;;5108642;28;20044;-76
2022/03/27 12:42:32;;;;;;;17.45;11.68;;;;;;;;;;5103595;28;21040;-80
2022/03/27 12:45:17;;;;;;;17.70;11.32;;;;;;;;;;5107223;28;20020;-80
2022/03/27 12:47:50;;;;;;;15.13;11.30;;;;;;;;;;5102554;28;20476;-76
2022/03/27 12:50:25;;;;;;;15.82;10.88;;;;;;;;;;5106650;28;20468;-77
2022/03/27 12:53:11;;;;;;;17.85;12.07;;;;;;;;;;5100446;28;20031;-80
2022/03/27 12:55:48;;;;;;;18.23;10.85;;;;;;;;;;5095863;28;20030;-80
2022/03/27 12:58:41;;;;;;;18.90;11.75;;;;;;;;;;5100289;28;20055;-81
2022/03/27 13:01:14;;;;;;;19.05;10.88;;;;;;;;;;5093425;28;20039;-81
2022/03/27 13:03:57;;;;;;;16.13;11.32;;;;;;;;;;5112423;28;20029;-80
2022/03/27 13:06:35;;;;;;;15.60;10.52;;;;;;;;;;5113440;28;20028;-81
2022/03/27 13:09:03;;;;;;;14.48;9.70;;;;;;;;;;5114817;28;20019;-82
2022/03/27 13:11:30;;;;;;;18.13;10.30;;;;;;;;;;5114407;28;20027;-80
2022/03/27 13:14:00;;;;;;;17.48;10.82;;;;;;;;;;5113891;28;20030;-79
2022/03/27 13:16:27;;;;;;;14.65;9.82;;;;;;;;;;5096718;28;20456;-80
2022/03/27 13:18:59;;;;;;;16.30;11.30;;;;;;;;;;5093190;28;20024;-80
2022/03/27 13:21:33;;;;;;;18.83;11.32;;;;;;;;;;5093256;28;20377;-80
2022/03/27 13:24:00;;;;;;;17.50;11.52;;;;;;;;;;5094336;28;20050;-82
2022/03/27 13:26:26;;;;;;;17.02;11.43;;;;;;;;;;5101802;28;20035;-80
2022/03/27 13:28:53;;;;;;;15.88;10.55;;;;;;;;;;5106201;28;20035;-79
2022/03/27 13:31:19;;;;;;;19.52;11.65;;;;;;;;;;5098392;28;20028;-81
2022/03/27 13:33:45;;;;;;;18.60;11.07;;;;;;;;;;5093003;28;20023;-83
2022/03/27 13:36:12;;;;;;;17.95;10.10;;;;;;;;;;5093696;28;20035;-80
2022/03/27 13:38:38;;;;;;;15.40;11.15;;;;;;;;;;5092706;28;20536;-79
2022/03/27 13:43:48;;;;;;;15.60;11.27;;;;;;;;;;5093468;28;20065;-80
2022/03/27 13:46:15;;;;;;;16.77;11.73;;;;;;;;;;5102350;28;20026;-79
2022/03/27 13:48:41;;;;;;;14.60;10.20;;;;;;;;;;5103278;28;20616;-80
2022/03/27 13:51:06;;;;;;;17.13;10.43;;;;;;;;;;5101866;28;20040;-78
2022/03/27 13:53:32;;;;;;;17.15;10.73;;;;;;;;;;5099363;28;20056;-79
2022/03/27 13:56:00;;;;;;;18.77;10.85;;;;;;;;;;5109947;28;20051;-78
2022/03/27 13:58:26;;;;;;;14.63;10.38;;;;;;;;;;5113269;28;20020;-80
2022/03/27 14:00:52;;;;;;;16.33;9.88;;;;;;;;;;5108809;28;20036;-79
2022/03/27 14:03:18;;;;;;;15.57;10.27;;;;;;;;;;5095221;28;20028;-79
2022/03/27 14:05:44;;;;;;;13.38;9.25;;;;;;;;;;5097989;28;20024;-80
2022/03/27 14:08:10;;;;;;;15.93;11.10;;;;;;;;;;5097927;28;20031;-81
2022/03/27 14:10:36;;;;;;;20.45;11.57;;;;;;;;;;5093966;28;20048;-79
2022/03/27 14:13:02;;;;;;;14.23;10.65;;;;;;;;;;5092471;28;20712;-80
2022/03/27 14:15:28;;;;;;;16.80;10.48;;;;;;;;;;5091932;28;20059;-78
2022/03/27 14:17:54;;;;;;;16.65;10.65;;;;;;;;;;5091769;28;20027;-77
2022/03/27 14:20:20;;;;;;;14.52;10.05;;;;;;;;;;5095131;28;20111;-80
2022/03/27 14:22:47;;;;;;;15.27;10.18;;;;;;;;;;5098432;28;20096;-82
2022/03/27 14:25:14;;;;;;;16.05;10.98;;;;;;;;;;5103559;28;20035;-81
2022/03/27 14:27:41;;;;;;;16.25;10.25;;;;;;;;;;5115581;28;20036;-85
2022/03/27 14:30:15;;;;;;;16.77;9.32;;;;;;;;;;5113819;28;20039;-78
2022/03/27 14:32:46;;;;;;;14.90;9.82;;;;;;;;;;5107079;28;20032;-80
2022/03/27 14:35:13;;;;;;;14.70;9.55;;;;;;;;;;5114834;28;20040;-80
2022/03/27 14:37:39;;;;;;;16.58;10.45;;;;;;;;;;5130234;28;20038;-80
2022/03/27 14:40:07;;;;;;;16.20;11.57;;;;;;;;;;5130287;28;20032;-80
2022/03/27 14:42:35;;;;;;;17.90;10.85;;;;;;;;;;5118555;28;20042;-80
2022/03/27 14:45:03;;;;;;;16.10;10.82;;;;;;;;;;5113570;28;20020;-81
2022/03/27 14:47:32;;;;;;;15.30;10.07;;;;;;;;;;5119280;28;20031;-80
2022/03/27 14:50:00;;;;;;;15.80;9.95;;;;;;;;;;5129938;28;20360;-81